sensor_id;sensor_type;location;lat;lon;timestamp;temperature;humidity
7399;DHT22;3740;50.700;7.184;2023-09-07T00:01:23;18.30;99.90
7399;DHT22;3740;50.700;7.184;2023-09-07T00:03:48;18.30;99.90
7399;DHT22;3740;50.700;7.184;2023-09-07T00:06:14;18.20;99.90
7399;DHT22;3740;50.700;7.184;2023-09-07T00:08:39;18.20;99.90
7399;DHT22;3740;50.700;7.184;2023-09-07T00:11:06;18.30;99.90
7399;DHT22;3740;50.700;7.184;2023-09-07T00:13:32;18.20;99.90
7399;DHT22;3740;50.700;7.184;2023-09-07T00:15:59;18.20;99.90
7399;DHT22;3740;50.700;7.184;2023-09-07T00:18:26;18.20;99.90
7399;DHT22;3740;50.700;7.184;2023-09-07T00:20:51;18.20;99.90
7399;DHT22;3740;50.700;7.184;2023-09-07T00:23:17;18.10;99.90
7399;DHT22;3740;50.700;7.184;2023-09-07T00:25:42;18.10;99.90
7399;DHT22;3740;50.700;7.184;2023-09-07T00:28:08;18.10;99.90
7399;DHT22;3740;50.700;7.184;2023-09-07T00:30:33;18.10;99.90
7399;DHT22;3740;50.700;7.184;2023-09-07T00:32:59;18.10;99.90
7399;DHT22;3740;50.700;7.184;2023-09-07T00:35:24;18.00;99.90
7399;DHT22;3740;50.700;7.184;2023-09-07T00:37:50;18.00;99.90
7399;DHT22;3740;50.700;7.184;2023-09-07T00:40:16;18.00;99.90
7399;DHT22;3740;50.700;7.184;2023-09-07T00:42:41;18.00;99.90
7399;DHT22;3740;50.700;7.184;2023-09-07T00:45:07;17.90;99.90
7399;DHT22;3740;50.700;7.184;2023-09-07T00:47:34;17.90;99.90
7399;DHT22;3740;50.700;7.184;2023-09-07T00:50:02;17.90;99.90
7399;DHT22;3740;50.700;7.184;2023-09-07T00:52:28;17.90;99.90
7399;DHT22;3740;50.700;7.184;2023-09-07T00:54:54;17.90;99.90
7399;DHT22;3740;50.700;7.184;2023-09-07T00:57:19;17.80;99.90
7399;DHT22;3740;50.700;7.184;2023-09-07T00:59:45;17.80;99.90
7399;DHT22;3740;50.700;7.184;2023-09-07T01:02:11;17.80;99.90
7399;DHT22;3740;50.700;7.184;2023-09-07T01:04:36;17.80;99.90
7399;DHT22;3740;50.700;7.184;2023-09-07T01:07:38;17.80;99.90
7399;DHT22;3740;50.700;7.184;2023-09-07T01:10:06;17.80;99.90
7399;DHT22;3740;50.700;7.184;2023-09-07T01:12:33;17.80;99.90
7399;DHT22;3740;50.700;7.184;2023-09-07T01:14:59;17.70;99.90
7399;DHT22;3740;50.700;7.184;2023-09-07T01:17:25;17.70;99.90
7399;DHT22;3740;50.700;7.184;2023-09-07T01:19:52;17.60;99.90
7399;DHT22;3740;50.700;7.184;2023-09-07T01:22:19;17.60;99.90
7399;DHT22;3740;50.700;7.184;2023-09-07T01:24:45;17.60;99.90
7399;DHT22;3740;50.700;7.184;2023-09-07T01:27:12;17.60;99.90
7399;DHT22;3740;50.700;7.184;2023-09-07T01:29:39;17.60;99.90
7399;DHT22;3740;50.700;7.184;2023-09-07T01:32:05;17.60;99.90
7399;DHT22;3740;50.700;7.184;2023-09-07T01:34:31;17.60;99.90
7399;DHT22;3740;50.700;7.184;2023-09-07T01:36:57;17.60;99.90
7399;DHT22;3740;50.700;7.184;2023-09-07T01:39:22;17.50;99.90
7399;DHT22;3740;50.700;7.184;2023-09-07T01:41:48;17.50;99.90
7399;DHT22;3740;50.700;7.184;2023-09-07T01:44:13;17.50;99.90
7399;DHT22;3740;50.700;7.184;2023-09-07T01:46:39;17.50;99.90
7399;DHT22;3740;50.700;7.184;2023-09-07T01:49:05;17.50;99.90
7399;DHT22;3740;50.700;7.184;2023-09-07T01:51:30;17.40;99.90
7399;DHT22;3740;50.700;7.184;2023-09-07T01:53:56;17.50;99.90
7399;DHT22;3740;50.700;7.184;2023-09-07T01:56:21;17.50;99.90
7399;DHT22;3740;50.700;7.184;2023-09-07T01:58:47;17.40;99.90
7399;DHT22;3740;50.700;7.184;2023-09-07T02:01:25;17.40;99.90
7399;DHT22;3740;50.700;7.184;2023-09-07T02:03:51;17.40;99.90
7399;DHT22;3740;50.700;7.184;2023-09-07T02:06:17;17.40;99.90
7399;DHT22;3740;50.700;7.184;2023-09-07T02:08:43;17.40;99.90
7399;DHT22;3740;50.700;7.184;2023-09-07T02:11:09;17.40;99.90
7399;DHT22;3740;50.700;7.184;2023-09-07T02:13:35;17.40;99.90
7399;DHT22;3740;50.700;7.184;2023-09-07T02:16:04;17.30;99.90
7399;DHT22;3740;50.700;7.184;2023-09-07T02:18:31;17.30;99.90
7399;DHT22;3740;50.700;7.184;2023-09-07T02:21:04;17.30;99.90
7399;DHT22;3740;50.700;7.184;2023-09-07T02:23:33;17.30;99.90
7399;DHT22;3740;50.700;7.184;2023-09-07T02:25:59;17.20;99.90
7399;DHT22;3740;50.700;7.184;2023-09-07T02:28:25;17.20;99.90
7399;DHT22;3740;50.700;7.184;2023-09-07T02:30:54;17.20;99.90
7399;DHT22;3740;50.700;7.184;2023-09-07T02:33:20;17.20;99.90
7399;DHT22;3740;50.700;7.184;2023-09-07T02:35:47;17.20;99.90
7399;DHT22;3740;50.700;7.184;2023-09-07T02:38:13;17.10;99.90
7399;DHT22;3740;50.700;7.184;2023-09-07T02:40:42;17.10;99.90
7399;DHT22;3740;50.700;7.184;2023-09-07T02:43:11;17.10;99.90
7399;DHT22;3740;50.700;7.184;2023-09-07T02:45:38;17.10;99.90
7399;DHT22;3740;50.700;7.184;2023-09-07T02:48:05;17.00;99.90
7399;DHT22;3740;50.700;7.184;2023-09-07T02:50:32;17.00;99.90
7399;DHT22;3740;50.700;7.184;2023-09-07T02:52:59;17.00;99.90
7399;DHT22;3740;50.700;7.184;2023-09-07T02:55:25;17.00;99.90
7399;DHT22;3740;50.700;7.184;2023-09-07T02:57:51;16.90;99.90
7399;DHT22;3740;50.700;7.184;2023-09-07T03:00:17;16.90;99.90
7399;DHT22;3740;50.700;7.184;2023-09-07T03:02:43;16.90;99.90
7399;DHT22;3740;50.700;7.184;2023-09-07T03:05:09;16.90;99.90
7399;DHT22;3740;50.700;7.184;2023-09-07T03:07:34;16.80;99.90
7399;DHT22;3740;50.700;7.184;2023-09-07T03:10:00;16.90;99.90
7399;DHT22;3740;50.700;7.184;2023-09-07T03:12:27;16.80;99.90
7399;DHT22;3740;50.700;7.184;2023-09-07T03:14:53;16.80;99.90
7399;DHT22;3740;50.700;7.184;2023-09-07T03:17:19;16.80;99.90
7399;DHT22;3740;50.700;7.184;2023-09-07T03:19:46;16.70;99.90
7399;DHT22;3740;50.700;7.184;2023-09-07T03:22:12;16.70;99.90
7399;DHT22;3740;50.700;7.184;2023-09-07T03:24:38;16.70;99.90
7399;DHT22;3740;50.700;7.184;2023-09-07T03:27:04;16.70;99.90
7399;DHT22;3740;50.700;7.184;2023-09-07T03:29:31;16.70;99.90
7399;DHT22;3740;50.700;7.184;2023-09-07T03:31:59;16.70;99.90
7399;DHT22;3740;50.700;7.184;2023-09-07T03:34:25;16.70;99.90
7399;DHT22;3740;50.700;7.184;2023-09-07T03:36:50;16.70;99.90
7399;DHT22;3740;50.700;7.184;2023-09-07T03:39:16;16.70;99.90
7399;DHT22;3740;50.700;7.184;2023-09-07T03:41:44;16.70;99.90
7399;DHT22;3740;50.700;7.184;2023-09-07T03:44:10;16.60;99.90
7399;DHT22;3740;50.700;7.184;2023-09-07T03:46:35;16.60;99.90
7399;DHT22;3740;50.700;7.184;2023-09-07T03:49:01;16.60;99.90
7399;DHT22;3740;50.700;7.184;2023-09-07T03:51:27;16.60;99.90
7399;DHT22;3740;50.700;7.184;2023-09-07T03:53:52;16.60;99.90
7399;DHT22;3740;50.700;7.184;2023-09-07T03:56:18;16.60;99.90
7399;DHT22;3740;50.700;7.184;2023-09-07T03:58:43;16.50;99.90
7399;DHT22;3740;50.700;7.184;2023-09-07T04:01:09;16.50;99.90
7399;DHT22;3740;50.700;7.184;2023-09-07T04:03:34;16.50;99.90
7399;DHT22;3740;50.700;7.184;2023-09-07T04:06:00;16.40;99.90
7399;DHT22;3740;50.700;7.184;2023-09-07T04:08:26;16.40;99.90
7399;DHT22;3740;50.700;7.184;2023-09-07T04:10:52;16.40;99.90
7399;DHT22;3740;50.700;7.184;2023-09-07T04:13:17;16.40;99.90
7399;DHT22;3740;50.700;7.184;2023-09-07T04:15:44;16.40;99.90
7399;DHT22;3740;50.700;7.184;2023-09-07T04:18:11;16.40;99.90
7399;DHT22;3740;50.700;7.184;2023-09-07T04:20:38;16.40;99.90
7399;DHT22;3740;50.700;7.184;2023-09-07T04:23:04;16.40;99.90
7399;DHT22;3740;50.700;7.184;2023-09-07T04:25:30;16.40;99.90
7399;DHT22;3740;50.700;7.184;2023-09-07T04:27:55;16.40;99.90
7399;DHT22;3740;50.700;7.184;2023-09-07T04:30:22;16.40;99.90
7399;DHT22;3740;50.700;7.184;2023-09-07T04:32:48;16.40;99.90
7399;DHT22;3740;50.700;7.184;2023-09-07T04:35:13;16.40;99.90
7399;DHT22;3740;50.700;7.184;2023-09-07T04:37:42;16.40;99.90
7399;DHT22;3740;50.700;7.184;2023-09-07T04:40:08;16.30;99.90
7399;DHT22;3740;50.700;7.184;2023-09-07T04:42:33;16.30;99.90
7399;DHT22;3740;50.700;7.184;2023-09-07T04:44:59;16.30;99.90
7399;DHT22;3740;50.700;7.184;2023-09-07T04:47:24;16.30;99.90
7399;DHT22;3740;50.700;7.184;2023-09-07T04:49:50;16.30;99.90
7399;DHT22;3740;50.700;7.184;2023-09-07T04:52:18;16.20;99.90
7399;DHT22;3740;50.700;7.184;2023-09-07T04:54:44;16.20;99.90
7399;DHT22;3740;50.700;7.184;2023-09-07T04:57:10;16.20;99.90
7399;DHT22;3740;50.700;7.184;2023-09-07T04:59:36;16.20;99.90
7399;DHT22;3740;50.700;7.184;2023-09-07T05:02:01;16.20;99.90
7399;DHT22;3740;50.700;7.184;2023-09-07T05:04:28;16.20;99.90
7399;DHT22;3740;50.700;7.184;2023-09-07T05:06:53;16.20;99.90
7399;DHT22;3740;50.700;7.184;2023-09-07T05:09:19;16.20;99.90
7399;DHT22;3740;50.700;7.184;2023-09-07T05:11:45;16.20;99.90
7399;DHT22;3740;50.700;7.184;2023-09-07T05:14:11;16.20;99.90
7399;DHT22;3740;50.700;7.184;2023-09-07T05:16:37;16.20;99.90
7399;DHT22;3740;50.700;7.184;2023-09-07T05:19:02;16.20;99.90
7399;DHT22;3740;50.700;7.184;2023-09-07T05:21:28;16.20;99.90
7399;DHT22;3740;50.700;7.184;2023-09-07T05:23:54;16.20;99.90
7399;DHT22;3740;50.700;7.184;2023-09-07T05:26:23;16.20;99.90
7399;DHT22;3740;50.700;7.184;2023-09-07T05:28:49;16.20;99.90
7399;DHT22;3740;50.700;7.184;2023-09-07T05:31:15;16.20;99.90
7399;DHT22;3740;50.700;7.184;2023-09-07T05:33:41;16.20;99.90
7399;DHT22;3740;50.700;7.184;2023-09-07T05:36:06;16.20;99.90
7399;DHT22;3740;50.700;7.184;2023-09-07T05:38:32;16.20;99.90
7399;DHT22;3740;50.700;7.184;2023-09-07T05:40:57;16.20;99.90
7399;DHT22;3740;50.700;7.184;2023-09-07T05:43:23;16.20;99.90
7399;DHT22;3740;50.700;7.184;2023-09-07T05:45:49;16.20;99.90
7399;DHT22;3740;50.700;7.184;2023-09-07T05:48:14;16.20;99.90
7399;DHT22;3740;50.700;7.184;2023-09-07T05:50:42;16.20;99.90
7399;DHT22;3740;50.700;7.184;2023-09-07T05:53:08;16.30;99.90
7399;DHT22;3740;50.700;7.184;2023-09-07T05:55:34;16.30;99.90
7399;DHT22;3740;50.700;7.184;2023-09-07T05:58:03;16.30;99.90
7399;DHT22;3740;50.700;7.184;2023-09-07T06:00:29;16.30;99.90
7399;DHT22;3740;50.700;7.184;2023-09-07T06:02:54;16.30;99.90
7399;DHT22;3740;50.700;7.184;2023-09-07T06:05:20;16.40;99.90
7399;DHT22;3740;50.700;7.184;2023-09-07T06:07:46;16.40;99.90
7399;DHT22;3740;50.700;7.184;2023-09-07T06:10:12;16.50;99.90
7399;DHT22;3740;50.700;7.184;2023-09-07T06:12:37;16.50;99.90
7399;DHT22;3740;50.700;7.184;2023-09-07T06:15:03;16.50;99.90
7399;DHT22;3740;50.700;7.184;2023-09-07T06:17:29;16.50;99.90
7399;DHT22;3740;50.700;7.184;2023-09-07T06:19:55;16.60;99.90
7399;DHT22;3740;50.700;7.184;2023-09-07T06:22:21;16.70;99.90
7399;DHT22;3740;50.700;7.184;2023-09-07T06:24:46;16.70;99.90
7399;DHT22;3740;50.700;7.184;2023-09-07T06:27:12;16.70;99.90
7399;DHT22;3740;50.700;7.184;2023-09-07T06:29:38;16.80;99.90
7399;DHT22;3740;50.700;7.184;2023-09-07T06:32:04;16.80;99.90
7399;DHT22;3740;50.700;7.184;2023-09-07T06:34:29;16.80;99.90
7399;DHT22;3740;50.700;7.184;2023-09-07T06:36:55;16.90;99.90
7399;DHT22;3740;50.700;7.184;2023-09-07T06:39:20;16.90;99.90
7399;DHT22;3740;50.700;7.184;2023-09-07T06:41:46;17.00;99.90
7399;DHT22;3740;50.700;7.184;2023-09-07T06:44:12;17.00;99.90
7399;DHT22;3740;50.700;7.184;2023-09-07T06:46:38;17.10;99.90
7399;DHT22;3740;50.700;7.184;2023-09-07T06:49:03;17.10;99.90
7399;DHT22;3740;50.700;7.184;2023-09-07T06:51:30;17.20;99.90
7399;DHT22;3740;50.700;7.184;2023-09-07T06:53:56;17.20;99.90
7399;DHT22;3740;50.700;7.184;2023-09-07T06:56:22;17.20;99.90
7399;DHT22;3740;50.700;7.184;2023-09-07T06:58:48;17.30;99.90
7399;DHT22;3740;50.700;7.184;2023-09-07T07:01:13;17.30;99.90
7399;DHT22;3740;50.700;7.184;2023-09-07T07:03:39;17.40;99.90
7399;DHT22;3740;50.700;7.184;2023-09-07T07:06:04;17.40;99.90
7399;DHT22;3740;50.700;7.184;2023-09-07T07:08:30;17.40;99.90
7399;DHT22;3740;50.700;7.184;2023-09-07T07:10:56;17.50;99.90
7399;DHT22;3740;50.700;7.184;2023-09-07T07:13:21;17.50;99.90
7399;DHT22;3740;50.700;7.184;2023-09-07T07:15:47;17.50;99.90
7399;DHT22;3740;50.700;7.184;2023-09-07T07:18:12;17.50;99.90
7399;DHT22;3740;50.700;7.184;2023-09-07T07:20:39;17.60;99.90
7399;DHT22;3740;50.700;7.184;2023-09-07T07:23:05;17.60;99.90
7399;DHT22;3740;50.700;7.184;2023-09-07T07:25:32;17.70;99.90
7399;DHT22;3740;50.700;7.184;2023-09-07T07:28:02;17.70;99.90
7399;DHT22;3740;50.700;7.184;2023-09-07T07:30:40;17.80;99.90
7399;DHT22;3740;50.700;7.184;2023-09-07T07:33:06;17.90;99.90
7399;DHT22;3740;50.700;7.184;2023-09-07T07:35:36;17.90;99.90
7399;DHT22;3740;50.700;7.184;2023-09-07T07:38:02;18.00;99.90
7399;DHT22;3740;50.700;7.184;2023-09-07T07:40:29;18.10;99.90
7399;DHT22;3740;50.700;7.184;2023-09-07T07:42:55;18.20;99.90
7399;DHT22;3740;50.700;7.184;2023-09-07T07:45:20;18.30;99.90
7399;DHT22;3740;50.700;7.184;2023-09-07T07:47:48;18.40;99.90
7399;DHT22;3740;50.700;7.184;2023-09-07T07:50:14;18.50;99.90
7399;DHT22;3740;50.700;7.184;2023-09-07T07:52:40;18.60;99.90
7399;DHT22;3740;50.700;7.184;2023-09-07T07:55:06;18.80;99.90
7399;DHT22;3740;50.700;7.184;2023-09-07T07:57:32;18.90;99.90
7399;DHT22;3740;50.700;7.184;2023-09-07T07:59:58;19.10;99.90
7399;DHT22;3740;50.700;7.184;2023-09-07T08:02:23;19.20;99.90
7399;DHT22;3740;50.700;7.184;2023-09-07T08:04:49;19.30;99.90
7399;DHT22;3740;50.700;7.184;2023-09-07T08:07:15;19.40;99.90
7399;DHT22;3740;50.700;7.184;2023-09-07T08:09:40;19.50;99.90
7399;DHT22;3740;50.700;7.184;2023-09-07T08:12:06;19.50;99.90
7399;DHT22;3740;50.700;7.184;2023-09-07T08:14:32;19.60;99.90
7399;DHT22;3740;50.700;7.184;2023-09-07T08:16:58;19.70;99.90
7399;DHT22;3740;50.700;7.184;2023-09-07T08:19:24;19.80;99.90
7399;DHT22;3740;50.700;7.184;2023-09-07T08:21:50;19.80;99.90
7399;DHT22;3740;50.700;7.184;2023-09-07T08:24:16;20.00;99.90
7399;DHT22;3740;50.700;7.184;2023-09-07T08:26:41;20.00;99.90
7399;DHT22;3740;50.700;7.184;2023-09-07T08:29:08;20.10;99.90
7399;DHT22;3740;50.700;7.184;2023-09-07T08:31:35;20.20;99.90
7399;DHT22;3740;50.700;7.184;2023-09-07T08:34:01;20.30;99.90
7399;DHT22;3740;50.700;7.184;2023-09-07T08:36:29;20.30;99.90
7399;DHT22;3740;50.700;7.184;2023-09-07T08:38:57;20.40;99.90
7399;DHT22;3740;50.700;7.184;2023-09-07T08:41:26;20.40;99.90
7399;DHT22;3740;50.700;7.184;2023-09-07T08:43:53;21.00;99.90
7399;DHT22;3740;50.700;7.184;2023-09-07T08:46:19;20.60;99.90
7399;DHT22;3740;50.700;7.184;2023-09-07T08:48:49;20.70;99.90
7399;DHT22;3740;50.700;7.184;2023-09-07T08:51:15;20.70;99.90
7399;DHT22;3740;50.700;7.184;2023-09-07T08:53:42;20.80;99.90
7399;DHT22;3740;50.700;7.184;2023-09-07T08:56:14;20.90;99.90
7399;DHT22;3740;50.700;7.184;2023-09-07T08:58:41;20.90;99.90
7399;DHT22;3740;50.700;7.184;2023-09-07T09:01:07;21.00;99.90
7399;DHT22;3740;50.700;7.184;2023-09-07T09:03:34;21.00;99.90
7399;DHT22;3740;50.700;7.184;2023-09-07T09:06:00;21.10;99.90
7399;DHT22;3740;50.700;7.184;2023-09-07T09:08:26;21.20;99.90
7399;DHT22;3740;50.700;7.184;2023-09-07T09:10:59;21.30;99.90
7399;DHT22;3740;50.700;7.184;2023-09-07T09:13:30;21.40;99.90
7399;DHT22;3740;50.700;7.184;2023-09-07T09:15:55;21.40;99.90
7399;DHT22;3740;50.700;7.184;2023-09-07T09:18:21;21.50;99.90
7399;DHT22;3740;50.700;7.184;2023-09-07T09:20:46;21.60;99.90
7399;DHT22;3740;50.700;7.184;2023-09-07T09:23:13;21.80;99.90
7399;DHT22;3740;50.700;7.184;2023-09-07T09:25:40;21.80;99.90
7399;DHT22;3740;50.700;7.184;2023-09-07T09:28:11;21.90;99.90
7399;DHT22;3740;50.700;7.184;2023-09-07T09:30:37;22.00;99.90
7399;DHT22;3740;50.700;7.184;2023-09-07T09:33:03;22.10;99.90
7399;DHT22;3740;50.700;7.184;2023-09-07T09:35:31;22.20;99.90
7399;DHT22;3740;50.700;7.184;2023-09-07T09:38:01;22.20;99.90
7399;DHT22;3740;50.700;7.184;2023-09-07T09:40:31;22.20;99.90
7399;DHT22;3740;50.700;7.184;2023-09-07T09:42:57;22.20;99.90
7399;DHT22;3740;50.700;7.184;2023-09-07T09:45:26;22.30;99.90
7399;DHT22;3740;50.700;7.184;2023-09-07T09:47:54;22.40;99.90
7399;DHT22;3740;50.700;7.184;2023-09-07T09:50:22;22.50;99.90
7399;DHT22;3740;50.700;7.184;2023-09-07T09:52:48;22.50;99.90
7399;DHT22;3740;50.700;7.184;2023-09-07T09:55:14;22.60;99.90
7399;DHT22;3740;50.700;7.184;2023-09-07T09:57:40;22.80;99.90
7399;DHT22;3740;50.700;7.184;2023-09-07T10:00:07;22.80;99.90
7399;DHT22;3740;50.700;7.184;2023-09-07T10:02:50;22.90;99.90
7399;DHT22;3740;50.700;7.184;2023-09-07T10:05:17;23.00;99.90
7399;DHT22;3740;50.700;7.184;2023-09-07T10:07:44;23.10;99.90
7399;DHT22;3740;50.700;7.184;2023-09-07T10:10:13;23.20;99.90
7399;DHT22;3740;50.700;7.184;2023-09-07T10:12:52;23.30;99.90
7399;DHT22;3740;50.700;7.184;2023-09-07T10:15:24;23.50;99.90
7399;DHT22;3740;50.700;7.184;2023-09-07T10:18:01;23.50;99.90
7399;DHT22;3740;50.700;7.184;2023-09-07T10:20:27;23.60;99.90
7399;DHT22;3740;50.700;7.184;2023-09-07T10:23:02;23.70;99.90
7399;DHT22;3740;50.700;7.184;2023-09-07T10:25:30;23.80;99.90
7399;DHT22;3740;50.700;7.184;2023-09-07T10:27:55;23.80;99.90
7399;DHT22;3740;50.700;7.184;2023-09-07T10:30:23;24.00;99.90
7399;DHT22;3740;50.700;7.184;2023-09-07T10:32:50;24.30;99.90
7399;DHT22;3740;50.700;7.184;2023-09-07T10:35:16;24.80;99.90
7399;DHT22;3740;50.700;7.184;2023-09-07T10:37:46;25.70;99.90
7399;DHT22;3740;50.700;7.184;2023-09-07T10:40:12;27.50;99.90
7399;DHT22;3740;50.700;7.184;2023-09-07T10:42:39;30.40;99.90
7399;DHT22;3740;50.700;7.184;2023-09-07T10:45:09;33.20;99.90
7399;DHT22;3740;50.700;7.184;2023-09-07T10:47:39;35.60;97.30
7399;DHT22;3740;50.700;7.184;2023-09-07T10:50:05;37.20;85.00
7399;DHT22;3740;50.700;7.184;2023-09-07T10:52:33;38.60;82.10
7399;DHT22;3740;50.700;7.184;2023-09-07T10:54:59;39.90;76.20
7399;DHT22;3740;50.700;7.184;2023-09-07T10:57:24;40.80;64.60
7399;DHT22;3740;50.700;7.184;2023-09-07T10:59:50;42.00;59.60
7399;DHT22;3740;50.700;7.184;2023-09-07T11:02:15;42.30;55.60
7399;DHT22;3740;50.700;7.184;2023-09-07T11:04:41;42.60;55.20
7399;DHT22;3740;50.700;7.184;2023-09-07T11:07:07;43.30;55.30
7399;DHT22;3740;50.700;7.184;2023-09-07T11:09:32;43.10;53.40
7399;DHT22;3740;50.700;7.184;2023-09-07T11:12:04;43.50;53.40
7399;DHT22;3740;50.700;7.184;2023-09-07T11:14:30;44.10;52.00
7399;DHT22;3740;50.700;7.184;2023-09-07T11:16:56;44.50;50.20
7399;DHT22;3740;50.700;7.184;2023-09-07T11:19:22;44.30;50.00
7399;DHT22;3740;50.700;7.184;2023-09-07T11:21:48;44.70;49.40
7399;DHT22;3740;50.700;7.184;2023-09-07T11:24:13;44.60;48.80
7399;DHT22;3740;50.700;7.184;2023-09-07T11:26:45;44.30;48.40
7399;DHT22;3740;50.700;7.184;2023-09-07T11:29:17;44.40;47.10
7399;DHT22;3740;50.700;7.184;2023-09-07T11:31:44;44.20;47.40
7399;DHT22;3740;50.700;7.184;2023-09-07T11:34:14;44.60;47.50
7399;DHT22;3740;50.700;7.184;2023-09-07T11:36:41;45.20;46.10
7399;DHT22;3740;50.700;7.184;2023-09-07T11:39:07;45.00;46.00
7399;DHT22;3740;50.700;7.184;2023-09-07T11:41:44;45.10;45.80
7399;DHT22;3740;50.700;7.184;2023-09-07T11:44:10;45.00;45.10
7399;DHT22;3740;50.700;7.184;2023-09-07T11:46:36;44.80;45.60
7399;DHT22;3740;50.700;7.184;2023-09-07T11:49:02;45.20;45.20
7399;DHT22;3740;50.700;7.184;2023-09-07T11:51:30;44.90;45.80
7399;DHT22;3740;50.700;7.184;2023-09-07T11:53:55;45.00;44.50
7399;DHT22;3740;50.700;7.184;2023-09-07T11:56:21;45.00;45.10
7399;DHT22;3740;50.700;7.184;2023-09-07T11:58:46;44.80;44.60
7399;DHT22;3740;50.700;7.184;2023-09-07T12:01:13;44.70;44.60
7399;DHT22;3740;50.700;7.184;2023-09-07T12:03:42;45.00;44.60
7399;DHT22;3740;50.700;7.184;2023-09-07T12:06:08;44.80;44.40
7399;DHT22;3740;50.700;7.184;2023-09-07T12:08:34;44.20;43.80
7399;DHT22;3740;50.700;7.184;2023-09-07T12:11:00;44.00;44.50
7399;DHT22;3740;50.700;7.184;2023-09-07T12:13:25;43.70;45.20
7399;DHT22;3740;50.700;7.184;2023-09-07T12:15:51;43.40;46.10
7399;DHT22;3740;50.700;7.184;2023-09-07T12:18:17;43.00;46.50
7399;DHT22;3740;50.700;7.184;2023-09-07T12:20:43;42.30;45.80
7399;DHT22;3740;50.700;7.184;2023-09-07T12:23:10;42.20;46.20
7399;DHT22;3740;50.700;7.184;2023-09-07T12:25:36;41.90;45.40
7399;DHT22;3740;50.700;7.184;2023-09-07T12:28:02;41.60;46.60
7399;DHT22;3740;50.700;7.184;2023-09-07T12:30:28;40.90;47.80
7399;DHT22;3740;50.700;7.184;2023-09-07T12:32:54;40.10;48.10
7399;DHT22;3740;50.700;7.184;2023-09-07T12:35:20;39.50;49.10
7399;DHT22;3740;50.700;7.184;2023-09-07T12:37:46;38.60;50.50
7399;DHT22;3740;50.700;7.184;2023-09-07T12:40:12;37.70;53.10
7399;DHT22;3740;50.700;7.184;2023-09-07T12:42:42;36.90;53.30
7399;DHT22;3740;50.700;7.184;2023-09-07T12:45:11;36.50;53.30
7399;DHT22;3740;50.700;7.184;2023-09-07T12:47:38;35.80;55.90
7399;DHT22;3740;50.700;7.184;2023-09-07T12:50:04;35.20;57.00
7399;DHT22;3740;50.700;7.184;2023-09-07T12:52:30;34.90;57.70
7399;DHT22;3740;50.700;7.184;2023-09-07T12:54:56;34.40;58.80
7399;DHT22;3740;50.700;7.184;2023-09-07T12:57:22;34.20;62.90
7399;DHT22;3740;50.700;7.184;2023-09-07T12:59:47;33.90;62.90
7399;DHT22;3740;50.700;7.184;2023-09-07T13:02:14;33.70;63.10
7399;DHT22;3740;50.700;7.184;2023-09-07T13:04:40;33.40;63.40
7399;DHT22;3740;50.700;7.184;2023-09-07T13:07:05;33.20;64.60
7399;DHT22;3740;50.700;7.184;2023-09-07T13:09:31;33.10;60.80
7399;DHT22;3740;50.700;7.184;2023-09-07T13:11:57;33.10;68.40
7399;DHT22;3740;50.700;7.184;2023-09-07T13:14:22;32.90;67.20
7399;DHT22;3740;50.700;7.184;2023-09-07T13:16:48;32.90;66.50
7399;DHT22;3740;50.700;7.184;2023-09-07T13:19:13;32.90;68.70
7399;DHT22;3740;50.700;7.184;2023-09-07T13:21:39;32.90;69.20
7399;DHT22;3740;50.700;7.184;2023-09-07T13:24:04;32.90;69.20
7399;DHT22;3740;50.700;7.184;2023-09-07T13:26:30;32.80;70.40
7399;DHT22;3740;50.700;7.184;2023-09-07T13:28:55;32.90;71.30
7399;DHT22;3740;50.700;7.184;2023-09-07T13:31:21;32.80;71.40
7399;DHT22;3740;50.700;7.184;2023-09-07T13:33:47;32.70;73.60
7399;DHT22;3740;50.700;7.184;2023-09-07T13:36:12;32.60;74.10
7399;DHT22;3740;50.700;7.184;2023-09-07T13:38:38;32.40;74.20
7399;DHT22;3740;50.700;7.184;2023-09-07T13:41:04;32.30;74.80
7399;DHT22;3740;50.700;7.184;2023-09-07T13:43:29;32.20;72.70
7399;DHT22;3740;50.700;7.184;2023-09-07T13:45:55;32.30;74.10
7399;DHT22;3740;50.700;7.184;2023-09-07T13:48:20;32.40;78.50
7399;DHT22;3740;50.700;7.184;2023-09-07T13:50:46;32.50;72.40
7399;DHT22;3740;50.700;7.184;2023-09-07T13:53:12;32.50;74.30
7399;DHT22;3740;50.700;7.184;2023-09-07T13:55:38;32.20;72.00
7399;DHT22;3740;50.700;7.184;2023-09-07T13:58:05;32.10;78.40
7399;DHT22;3740;50.700;7.184;2023-09-07T14:00:31;31.90;78.50
7399;DHT22;3740;50.700;7.184;2023-09-07T14:02:57;31.70;79.30
7399;DHT22;3740;50.700;7.184;2023-09-07T14:05:22;31.60;81.10
7399;DHT22;3740;50.700;7.184;2023-09-07T14:07:48;31.60;72.30
7399;DHT22;3740;50.700;7.184;2023-09-07T14:10:14;31.40;78.50
7399;DHT22;3740;50.700;7.184;2023-09-07T14:12:39;31.30;77.90
7399;DHT22;3740;50.700;7.184;2023-09-07T14:15:05;31.30;75.00
7399;DHT22;3740;50.700;7.184;2023-09-07T14:17:31;31.20;80.80
7399;DHT22;3740;50.700;7.184;2023-09-07T14:19:56;31.10;82.40
7399;DHT22;3740;50.700;7.184;2023-09-07T14:22:22;31.00;83.50
7399;DHT22;3740;50.700;7.184;2023-09-07T14:24:48;30.90;83.60
7399;DHT22;3740;50.700;7.184;2023-09-07T14:27:13;30.90;86.30
7399;DHT22;3740;50.700;7.184;2023-09-07T14:29:39;30.90;85.80
7399;DHT22;3740;50.700;7.184;2023-09-07T14:32:04;30.90;82.40
7399;DHT22;3740;50.700;7.184;2023-09-07T14:34:30;30.80;85.50
7399;DHT22;3740;50.700;7.184;2023-09-07T14:36:55;30.70;88.80
7399;DHT22;3740;50.700;7.184;2023-09-07T14:39:21;30.70;87.20
7399;DHT22;3740;50.700;7.184;2023-09-07T14:41:50;30.60;90.30
7399;DHT22;3740;50.700;7.184;2023-09-07T14:44:16;30.50;90.40
7399;DHT22;3740;50.700;7.184;2023-09-07T14:46:41;30.30;90.80
7399;DHT22;3740;50.700;7.184;2023-09-07T14:49:07;30.20;90.80
7399;DHT22;3740;50.700;7.184;2023-09-07T14:51:33;30.10;92.20
7399;DHT22;3740;50.700;7.184;2023-09-07T14:53:58;30.00;90.90
7399;DHT22;3740;50.700;7.184;2023-09-07T14:56:24;29.90;91.70
7399;DHT22;3740;50.700;7.184;2023-09-07T14:58:50;29.90;92.00
7399;DHT22;3740;50.700;7.184;2023-09-07T15:01:15;29.80;90.10
7399;DHT22;3740;50.700;7.184;2023-09-07T15:03:41;29.70;90.00
7399;DHT22;3740;50.700;7.184;2023-09-07T15:06:07;29.70;92.30
7399;DHT22;3740;50.700;7.184;2023-09-07T15:08:33;29.60;91.40
7399;DHT22;3740;50.700;7.184;2023-09-07T15:10:59;29.50;92.50
7399;DHT22;3740;50.700;7.184;2023-09-07T15:13:25;29.50;93.10
7399;DHT22;3740;50.700;7.184;2023-09-07T15:15:53;29.50;92.50
7399;DHT22;3740;50.700;7.184;2023-09-07T15:18:19;29.40;94.10
7399;DHT22;3740;50.700;7.184;2023-09-07T15:20:44;29.40;93.30
7399;DHT22;3740;50.700;7.184;2023-09-07T15:23:10;29.40;95.00
7399;DHT22;3740;50.700;7.184;2023-09-07T15:25:36;29.40;94.70
7399;DHT22;3740;50.700;7.184;2023-09-07T15:28:01;29.20;95.10
7399;DHT22;3740;50.700;7.184;2023-09-07T15:30:27;29.10;95.30
7399;DHT22;3740;50.700;7.184;2023-09-07T15:32:53;29.00;93.80
7399;DHT22;3740;50.700;7.184;2023-09-07T15:35:18;29.00;92.90
7399;DHT22;3740;50.700;7.184;2023-09-07T15:37:44;29.10;93.30
7399;DHT22;3740;50.700;7.184;2023-09-07T15:40:13;29.00;95.80
7399;DHT22;3740;50.700;7.184;2023-09-07T15:42:39;28.90;95.50
7399;DHT22;3740;50.700;7.184;2023-09-07T15:45:05;28.90;96.20
7399;DHT22;3740;50.700;7.184;2023-09-07T15:47:31;28.90;96.40
7399;DHT22;3740;50.700;7.184;2023-09-07T15:49:59;28.80;96.70
7399;DHT22;3740;50.700;7.184;2023-09-07T15:52:25;28.80;95.90
7399;DHT22;3740;50.700;7.184;2023-09-07T15:54:51;28.60;97.10
7399;DHT22;3740;50.700;7.184;2023-09-07T15:57:17;28.60;98.20